createdAt,value
2023-01-19T00:00:13.372Z,21.06
2023-01-19T00:01:17.644Z,21.05
2023-01-19T00:02:21.864Z,21.05
2023-01-19T00:03:26.301Z,21.07
2023-01-19T00:04:30.404Z,21.06
2023-01-19T00:05:34.505Z,21.03
2023-01-19T00:06:38.604Z,21.04
2023-01-19T00:07:42.817Z,21.04
2023-01-19T00:08:46.938Z,21.04
2023-01-19T00:09:51.242Z,21.04
2023-01-19T00:10:55.377Z,21.03
2023-01-19T00:11:59.522Z,21.03
2023-01-19T00:13:03.869Z,21
2023-01-19T00:14:07.999Z,21
2023-01-19T00:15:12.105Z,20.99
2023-01-19T00:16:16.272Z,21.01
2023-01-19T00:17:20.578Z,21.01
2023-01-19T00:18:24.855Z,21.01
2023-01-19T00:19:28.959Z,21
2023-01-19T00:20:33.037Z,20.99
2023-01-19T00:21:37.171Z,20.96
2023-01-19T00:22:41.296Z,20.99
2023-01-19T00:23:45.479Z,20.95
2023-01-19T00:24:49.711Z,20.97
2023-01-19T00:25:53.829Z,20.94
2023-01-19T00:26:58.015Z,20.96
2023-01-19T00:28:02.188Z,20.92
2023-01-19T00:29:06.388Z,20.92
2023-01-19T00:30:10.499Z,20.96
2023-01-19T00:31:14.627Z,20.94
2023-01-19T00:32:18.834Z,20.93
2023-01-19T00:33:22.920Z,20.93
2023-01-19T00:34:27.084Z,20.91
2023-01-19T00:35:31.220Z,20.93
2023-01-19T00:36:35.326Z,20.92
2023-01-19T00:37:39.430Z,20.92
2023-01-19T00:38:43.554Z,20.92
2023-01-19T00:39:47.679Z,20.91
2023-01-19T00:40:51.796Z,20.9
2023-01-19T00:41:55.912Z,20.88
2023-01-19T00:43:00.425Z,20.9
2023-01-19T00:44:05.887Z,20.89
2023-01-19T00:45:10.034Z,20.88
2023-01-19T00:46:14.186Z,20.87
2023-01-19T00:47:18.750Z,20.87
2023-01-19T00:48:22.858Z,20.84
2023-01-19T00:49:27.002Z,20.86
2023-01-19T00:50:31.128Z,20.85
2023-01-19T00:51:35.255Z,20.85
2023-01-19T00:52:39.359Z,20.82
2023-01-19T00:53:43.467Z,20.86
2023-01-19T00:54:47.665Z,20.86
2023-01-19T00:55:51.826Z,20.82
2023-01-19T00:56:55.983Z,20.84
2023-01-19T00:58:00.119Z,20.81
2023-01-19T00:59:04.262Z,20.83
2023-01-19T01:00:08.406Z,20.82
2023-01-19T01:01:12.643Z,20.81
2023-01-19T01:02:17.468Z,20.81
2023-01-19T01:03:22.244Z,20.81
2023-01-19T01:04:26.548Z,20.78
2023-01-19T01:05:30.658Z,20.78
2023-01-19T01:06:34.879Z,20.78
2023-01-19T01:07:39.001Z,20.8
2023-01-19T01:08:43.151Z,20.8
2023-01-19T01:09:47.271Z,20.78
2023-01-19T01:10:51.423Z,20.82
2023-01-19T01:11:55.617Z,20.83
2023-01-19T01:13:19.871Z,20.83
2023-01-19T01:14:30.299Z,20.84
2023-01-19T01:15:34.515Z,20.9
2023-01-19T01:16:38.754Z,20.94
2023-01-19T01:17:43.064Z,20.94
2023-01-19T01:18:47.161Z,21
2023-01-19T01:19:51.345Z,21.03
2023-01-19T01:20:56.383Z,21.03
2023-01-19T01:22:00.574Z,21.05
2023-01-19T01:23:04.882Z,21.1
2023-01-19T01:24:09.041Z,21.11
2023-01-19T01:25:13.149Z,21.13
2023-01-19T01:26:17.441Z,21.16
2023-01-19T01:27:21.540Z,21.16
2023-01-19T01:28:25.673Z,21.18
2023-01-19T01:29:29.952Z,21.19
2023-01-19T01:30:34.167Z,21.19
2023-01-19T01:31:38.371Z,21.25
2023-01-19T01:32:42.591Z,21.27
2023-01-19T01:33:46.792Z,21.29
2023-01-19T01:34:50.972Z,21.32
2023-01-19T01:35:55.065Z,21.33
2023-01-19T01:36:59.197Z,21.36
2023-01-19T01:38:03.513Z,21.35
2023-01-19T01:39:07.674Z,21.39
2023-01-19T01:40:11.791Z,21.4
2023-01-19T01:41:15.944Z,21.43
2023-01-19T01:42:24.030Z,21.46
2023-01-19T01:43:28.191Z,21.47
2023-01-19T01:44:32.320Z,21.47
2023-01-19T01:45:36.461Z,21.48
2023-01-19T01:46:40.805Z,21.46
2023-01-19T01:47:44.924Z,21.46
2023-01-19T01:48:49.067Z,21.42
2023-01-19T01:49:53.327Z,21.43
2023-01-19T01:50:57.456Z,21.43
2023-01-19T01:52:01.552Z,21.42
2023-01-19T01:53:06.279Z,21.38
2023-01-19T01:54:12.119Z,21.39
2023-01-19T01:55:16.222Z,21.37
2023-01-19T01:56:20.312Z,21.36
2023-01-19T01:57:24.430Z,21.38
2023-01-19T01:58:28.566Z,21.39
2023-01-19T01:59:32.672Z,21.4
2023-01-19T02:00:36.790Z,21.41
2023-01-19T02:01:41.048Z,21.4
2023-01-19T02:02:45.596Z,21.16
2023-01-19T02:03:49.802Z,21.47
2023-01-19T02:04:53.986Z,21.48
2023-01-19T02:05:58.133Z,21.53
2023-01-19T02:07:02.274Z,21.54
2023-01-19T02:08:06.391Z,21.57
2023-01-19T02:09:10.486Z,21.59
2023-01-19T02:10:14.593Z,21.59
2023-01-19T02:11:18.720Z,21.63
2023-01-19T02:12:22.851Z,21.65
2023-01-19T02:13:26.982Z,21.68
2023-01-19T02:14:31.088Z,21.65
2023-01-19T02:15:35.213Z,21.68
2023-01-19T02:16:39.384Z,21.68
2023-01-19T02:17:43.569Z,21.66
2023-01-19T02:18:47.722Z,21.61
2023-01-19T02:19:51.818Z,21.63
2023-01-19T02:20:55.915Z,21.6
2023-01-19T02:22:00.061Z,21.57
2023-01-19T02:23:04.330Z,21.58
2023-01-19T02:24:08.421Z,21.57
2023-01-19T02:25:12.536Z,21.56
2023-01-19T02:26:16.688Z,21.53
2023-01-19T02:27:20.905Z,21.5
2023-01-19T02:28:25.019Z,21.52
2023-01-19T02:29:29.124Z,21.54
2023-01-19T02:30:33.280Z,21.58
2023-01-19T02:31:37.523Z,21.57
2023-01-19T02:32:41.631Z,21.58
2023-01-19T02:33:45.757Z,21.62
2023-01-19T02:34:49.866Z,21.66
2023-01-19T02:35:53.956Z,21.66
2023-01-19T02:36:58.115Z,21.71
2023-01-19T02:38:02.295Z,21.7
2023-01-19T02:39:06.439Z,21.75
2023-01-19T02:40:10.548Z,21.78
2023-01-19T02:41:14.644Z,21.79
2023-01-19T02:42:18.754Z,21.79
2023-01-19T02:43:22.847Z,21.78
2023-01-19T02:44:26.958Z,21.76
2023-01-19T02:45:31.099Z,21.74
2023-01-19T02:46:35.205Z,21.77
2023-01-19T02:47:39.328Z,21.76
2023-01-19T02:48:43.459Z,21.74
2023-01-19T02:49:47.579Z,21.72
2023-01-19T02:50:51.669Z,21.71
2023-01-19T02:51:55.791Z,21.69
2023-01-19T02:53:00.244Z,21.67
2023-01-19T02:54:05.533Z,21.66
2023-01-19T02:55:09.627Z,21.65
2023-01-19T02:56:13.756Z,21.63
2023-01-19T02:57:17.900Z,21.63
2023-01-19T02:58:22.111Z,21.61
2023-01-19T02:59:26.226Z,21.6
2023-01-19T03:00:30.345Z,21.58
2023-01-19T03:01:34.571Z,21.56
2023-01-19T03:02:39.028Z,21.55
2023-01-19T03:03:43.429Z,21.56
2023-01-19T03:04:47.527Z,21.56
2023-01-19T03:05:51.619Z,21.56
2023-01-19T03:06:55.733Z,21.58
2023-01-19T03:07:59.856Z,21.58
2023-01-19T03:09:04.229Z,21.6
2023-01-19T03:10:08.352Z,21.64
2023-01-19T03:11:12.446Z,21.66
2023-01-19T03:12:16.558Z,21.69
2023-01-19T03:13:20.668Z,21.71
2023-01-19T03:14:24.891Z,21.73
2023-01-19T03:15:29.062Z,21.79
2023-01-19T03:16:33.317Z,21.8
2023-01-19T03:17:37.481Z,21.81
2023-01-19T03:18:41.571Z,21.85
2023-01-19T03:19:45.679Z,21.87
2023-01-19T03:20:49.790Z,21.88
2023-01-19T03:21:53.924Z,21.89
2023-01-19T03:22:58.512Z,21.87
2023-01-19T03:24:03.963Z,21.84
2023-01-19T03:25:08.110Z,21.84
2023-01-19T03:26:12.215Z,21.83
2023-01-19T03:27:16.418Z,21.85
2023-01-19T03:28:20.507Z,21.83
2023-01-19T03:29:24.816Z,21.83
2023-01-19T03:30:28.923Z,21.81
2023-01-19T03:31:33.025Z,21.8
2023-01-19T03:32:37.233Z,21.78
2023-01-19T03:33:41.393Z,21.77
2023-01-19T03:34:45.531Z,21.76
2023-01-19T03:35:49.629Z,21.73
2023-01-19T03:36:53.732Z,21.74
2023-01-19T03:37:57.836Z,21.75
2023-01-19T03:39:01.962Z,21.79
2023-01-19T03:40:06.060Z,21.79
2023-01-19T03:41:10.317Z,21.8
2023-01-19T03:42:14.452Z,21.84
2023-01-19T03:43:18.565Z,21.87
2023-01-19T03:44:22.670Z,21.89
2023-01-19T03:45:26.791Z,21.91
2023-01-19T03:46:30.954Z,21.94
2023-01-19T03:47:35.302Z,22
2023-01-19T03:48:39.429Z,22.01
2023-01-19T03:49:43.539Z,22.03
2023-01-19T03:50:47.673Z,22.04
2023-01-19T03:51:51.776Z,22.05
2023-01-19T03:52:55.879Z,22.08
2023-01-19T03:54:00.729Z,22.09
2023-01-19T03:55:04.853Z,22.12
2023-01-19T03:56:08.989Z,22.16
2023-01-19T03:57:13.138Z,22.16
2023-01-19T03:58:17.241Z,22.18
2023-01-19T03:59:21.363Z,22.23
2023-01-19T04:00:25.449Z,22.22
2023-01-19T04:01:29.740Z,22.26
2023-01-19T04:02:34.298Z,22.28
2023-01-19T04:03:38.597Z,22.26
2023-01-19T04:04:42.740Z,22.31
2023-01-19T04:05:46.832Z,22.34
2023-01-19T04:06:50.974Z,22.35
2023-01-19T04:07:55.084Z,22.36
2023-01-19T04:09:00.455Z,22.39
2023-01-19T04:10:07.663Z,22.4
2023-01-19T04:11:11.837Z,22.42
2023-01-19T04:12:15.964Z,22.42
2023-01-19T04:13:20.071Z,22.39
2023-01-19T04:14:24.213Z,22.42
2023-01-19T04:15:28.334Z,22.42
2023-01-19T04:16:32.442Z,22.43
2023-01-19T04:17:36.575Z,22.41
2023-01-19T04:18:40.704Z,22.37
2023-01-19T04:19:44.885Z,22.39
2023-01-19T04:20:49.054Z,22.37
2023-01-19T04:21:53.213Z,22.36
2023-01-19T04:22:57.383Z,22.32
2023-01-19T04:24:02.500Z,22.33
2023-01-19T04:25:06.656Z,22.31
2023-01-19T04:26:10.788Z,22.28
2023-01-19T04:27:14.896Z,22.29
2023-01-19T04:28:18.998Z,22.29
2023-01-19T04:29:23.124Z,22.3
2023-01-19T04:30:27.237Z,22.31
2023-01-19T04:31:31.361Z,22.31
2023-01-19T04:32:35.711Z,22.3
2023-01-19T04:33:39.910Z,22.36
2023-01-19T04:34:44.047Z,22.38
2023-01-19T04:35:48.173Z,22.38
2023-01-19T04:36:52.262Z,22.44
2023-01-19T04:37:56.376Z,22.43
2023-01-19T04:39:00.609Z,22.45
2023-01-19T04:40:04.726Z,22.5
2023-01-19T04:41:08.870Z,22.53
2023-01-19T04:42:12.978Z,22.57
2023-01-19T04:43:17.075Z,22.56
2023-01-19T04:44:21.266Z,22.58
2023-01-19T04:45:25.353Z,22.56
2023-01-19T04:46:29.487Z,22.58
2023-01-19T04:47:33.706Z,22.58
2023-01-19T04:48:37.801Z,22.53
2023-01-19T04:49:44.708Z,22.53
2023-01-19T04:50:48.965Z,22.51
2023-01-19T04:51:53.084Z,22.49
2023-01-19T04:52:57.194Z,22.48
2023-01-19T04:54:02.198Z,22.44
2023-01-19T04:55:06.420Z,22.43
2023-01-19T04:56:10.681Z,22.44
2023-01-19T04:57:15.210Z,22.42
2023-01-19T04:58:19.309Z,22.37
2023-01-19T04:59:23.401Z,22.36
2023-01-19T05:00:27.529Z,22.39
2023-01-19T05:01:31.755Z,22.37
2023-01-19T05:02:36.256Z,22.36
2023-01-19T05:03:40.683Z,22.37
2023-01-19T05:04:44.778Z,22.42
2023-01-19T05:05:48.938Z,22.41
2023-01-19T05:06:53.053Z,22.45
2023-01-19T05:07:57.175Z,22.44
2023-01-19T05:09:01.294Z,22.46
2023-01-19T05:10:05.387Z,22.46
2023-01-19T05:11:09.547Z,22.46
2023-01-19T05:12:13.697Z,22.45
2023-01-19T05:13:17.816Z,22.46
2023-01-19T05:14:21.916Z,22.45
2023-01-19T05:15:26.013Z,22.41
2023-01-19T05:16:30.296Z,22.39
2023-01-19T05:17:34.485Z,22.39
2023-01-19T05:18:38.627Z,22.41
2023-01-19T05:19:42.747Z,22.41
2023-01-19T05:20:46.850Z,22.42
2023-01-19T05:21:51.032Z,22.41
2023-01-19T05:22:55.143Z,22.41
2023-01-19T05:23:59.261Z,22.39
2023-01-19T05:25:03.489Z,22.37
2023-01-19T05:26:09.487Z,22.4
2023-01-19T05:27:13.756Z,22.39
2023-01-19T05:28:17.892Z,22.38
2023-01-19T05:29:21.981Z,22.39
2023-01-19T05:30:26.082Z,22.41
2023-01-19T05:31:30.332Z,22.42
2023-01-19T05:32:35.165Z,22.39
2023-01-19T05:33:39.500Z,22.41
2023-01-19T05:34:43.590Z,22.46
2023-01-19T05:35:47.686Z,22.45
2023-01-19T05:36:51.826Z,22.48
2023-01-19T05:37:55.987Z,22.49
2023-01-19T05:39:00.137Z,22.5
2023-01-19T05:40:04.262Z,22.5
2023-01-19T05:41:08.406Z,22.48
2023-01-19T05:42:12.529Z,22.46
2023-01-19T05:43:16.646Z,22.47
2023-01-19T05:44:20.763Z,22.41
2023-01-19T05:45:24.872Z,22.44
2023-01-19T05:46:29.000Z,22.41
2023-01-19T05:47:33.232Z,22.4
2023-01-19T05:48:37.351Z,22.39
2023-01-19T05:49:41.472Z,22.36
2023-01-19T05:50:45.615Z,22.37
2023-01-19T05:51:49.720Z,22.35
2023-01-19T05:52:53.845Z,22.34
2023-01-19T05:53:58.002Z,22.3
2023-01-19T05:55:02.151Z,22.28
2023-01-19T05:56:06.260Z,22.28
2023-01-19T05:57:10.362Z,22.28
2023-01-19T05:58:14.491Z,22.27
2023-01-19T05:59:18.630Z,22.23
2023-01-19T06:00:22.766Z,22.23
2023-01-19T06:01:26.951Z,22.21
2023-01-19T06:02:31.341Z,22.18
2023-01-19T06:03:35.703Z,22.17
2023-01-19T06:04:40.340Z,22.18
2023-01-19T06:05:44.450Z,22.14
2023-01-19T06:06:48.705Z,22.13
2023-01-19T06:07:52.835Z,22.13
2023-01-19T06:08:56.960Z,22.13
2023-01-19T06:10:01.095Z,22.09
2023-01-19T06:11:05.242Z,22.1
2023-01-19T06:12:09.358Z,22.08
2023-01-19T06:13:13.772Z,22.08
2023-01-19T06:14:17.920Z,22.07
2023-01-19T06:15:22.061Z,22.06
2023-01-19T06:16:26.279Z,22.06
2023-01-19T06:17:30.556Z,22.04
2023-01-19T06:18:34.656Z,22.03
2023-01-19T06:19:39.044Z,22.02
2023-01-19T06:20:43.152Z,22.01
2023-01-19T06:21:47.238Z,22
2023-01-19T06:22:51.361Z,21.96
2023-01-19T06:23:55.763Z,21.98
2023-01-19T06:24:59.940Z,21.97
2023-01-19T06:26:04.120Z,21.97
2023-01-19T06:27:08.247Z,21.95
2023-01-19T06:28:12.397Z,21.95
2023-01-19T06:29:16.529Z,21.91
2023-01-19T06:30:20.670Z,21.93
2023-01-19T06:31:24.839Z,21.8
2023-01-19T06:32:29.058Z,21.91
2023-01-19T06:33:33.199Z,21.91
2023-01-19T06:34:37.336Z,21.9
2023-01-19T06:35:41.465Z,21.89
2023-01-19T06:36:45.622Z,21.88
2023-01-19T06:37:49.734Z,21.85
2023-01-19T06:38:53.874Z,21.86
2023-01-19T06:39:58.014Z,21.83
2023-01-19T06:41:02.280Z,21.85
2023-01-19T06:42:06.622Z,21.83
2023-01-19T06:43:10.775Z,21.83
2023-01-19T06:44:15.045Z,21.83
2023-01-19T06:45:19.202Z,21.81
2023-01-19T06:46:23.310Z,21.79
2023-01-19T06:47:27.454Z,21.78
2023-01-19T06:48:31.707Z,21.8
2023-01-19T06:49:36.083Z,21.79
2023-01-19T06:50:40.189Z,21.78
2023-01-19T06:51:44.312Z,21.77
2023-01-19T06:52:48.423Z,21.77
2023-01-19T06:53:52.533Z,21.76
2023-01-19T06:54:56.833Z,21.75
2023-01-19T06:56:01.019Z,21.71
2023-01-19T06:57:07.633Z,21.7
2023-01-19T06:58:11.802Z,21.72
2023-01-19T06:59:15.916Z,21.71
2023-01-19T07:00:20.032Z,21.7
2023-01-19T07:01:24.259Z,21.69
2023-01-19T07:02:29.058Z,21.65
2023-01-19T07:03:33.926Z,21.64
2023-01-19T07:04:38.063Z,21.67
2023-01-19T07:05:42.204Z,21.63
2023-01-19T07:06:46.385Z,21.65
2023-01-19T07:07:50.619Z,21.64
2023-01-19T07:08:54.982Z,21.62
2023-01-19T07:09:59.114Z,21.61
2023-01-19T07:11:22.471Z,21.58
2023-01-19T07:12:36.040Z,21.59
2023-01-19T07:13:40.468Z,21.57
2023-01-19T07:14:44.649Z,21.53
2023-01-19T07:15:48.761Z,21.55
2023-01-19T07:16:52.897Z,21.55
2023-01-19T07:17:57.192Z,21.51
2023-01-19T07:19:01.290Z,21.53
2023-01-19T07:20:05.376Z,21.52
2023-01-19T07:21:09.696Z,21.52
2023-01-19T07:22:13.817Z,21.51
2023-01-19T07:23:17.937Z,21.5
2023-01-19T07:24:22.050Z,21.47
2023-01-19T07:25:26.193Z,21.49
2023-01-19T07:26:30.424Z,21.48
2023-01-19T07:27:34.544Z,21.46
2023-01-19T07:28:38.804Z,21.46
2023-01-19T07:29:42.936Z,21.46
2023-01-19T07:30:47.103Z,21.46
2023-01-19T07:31:51.512Z,21.46
2023-01-19T07:32:55.825Z,21.43
2023-01-19T07:34:00.633Z,21.42
2023-01-19T07:35:04.754Z,21.44
2023-01-19T07:36:08.896Z,21.42
2023-01-19T07:37:13.037Z,21.4
2023-01-19T07:38:17.188Z,21.43
2023-01-19T07:39:21.274Z,21.42
2023-01-19T07:40:25.406Z,21.4
2023-01-19T07:41:29.532Z,21.37
2023-01-19T07:42:33.658Z,21.38
2023-01-19T07:43:37.779Z,21.36
2023-01-19T07:44:41.880Z,21.36
2023-01-19T07:45:46.045Z,21.34
2023-01-19T07:46:50.307Z,21.35
2023-01-19T07:47:54.404Z,21.3
2023-01-19T07:48:58.523Z,21.28
2023-01-19T07:50:02.647Z,21.32
2023-01-19T07:51:06.807Z,21.31
2023-01-19T07:52:13.966Z,21.28
2023-01-19T07:53:18.084Z,21.3
2023-01-19T07:54:22.212Z,21.27
2023-01-19T07:55:26.316Z,21.31
2023-01-19T07:56:32.181Z,21.33
2023-01-19T07:57:37.326Z,21.32
2023-01-19T07:58:41.602Z,21.35
2023-01-19T07:59:45.712Z,21.35
2023-01-19T08:00:49.869Z,21.33
2023-01-19T08:01:54.375Z,21.32
2023-01-19T08:03:01.073Z,21.3
2023-01-19T08:04:06.658Z,21.31
2023-01-19T08:05:10.903Z,21.29
2023-01-19T08:06:15.088Z,21.28
2023-01-19T08:07:19.331Z,21.27
2023-01-19T08:08:23.433Z,21.28
2023-01-19T08:09:27.813Z,21.27
2023-01-19T08:10:31.920Z,21.24
2023-01-19T08:11:36.010Z,21.26
2023-01-19T08:12:40.173Z,21.26
2023-01-19T08:13:44.315Z,21.22
2023-01-19T08:14:48.437Z,21.24
2023-01-19T08:15:52.675Z,21.23
2023-01-19T08:16:56.973Z,21.23
2023-01-19T08:18:01.091Z,21.2
2023-01-19T08:19:05.199Z,21.22
2023-01-19T08:20:09.385Z,21.22
2023-01-19T08:21:13.795Z,21.21
2023-01-19T08:22:17.905Z,21.2
2023-01-19T08:23:22.086Z,20.96
2023-01-19T08:24:26.187Z,21.21
2023-01-19T08:25:30.311Z,21.2
2023-01-19T08:26:34.421Z,21.19
2023-01-19T08:27:38.591Z,21.17
2023-01-19T08:28:42.760Z,21.16
2023-01-19T08:29:46.954Z,21.17
2023-01-19T08:30:51.347Z,21.16
2023-01-19T08:31:56.047Z,21.16
2023-01-19T08:33:00.727Z,21.14
2023-01-19T08:34:05.920Z,21.14
2023-01-19T08:35:10.083Z,21.14
2023-01-19T08:36:14.220Z,21.14
2023-01-19T08:37:18.428Z,21.12
2023-01-19T08:38:22.566Z,21.1
2023-01-19T08:39:26.729Z,21.13
2023-01-19T08:40:30.842Z,21.12
2023-01-19T08:41:34.957Z,21.1
2023-01-19T08:42:39.090Z,21.12
2023-01-19T08:43:43.272Z,21.11
2023-01-19T08:44:57.442Z,21.08
2023-01-19T08:46:02.030Z,21.1
2023-01-19T08:47:06.390Z,21.1
2023-01-19T08:48:10.797Z,21.09
2023-01-19T08:49:14.962Z,21.09
2023-01-19T08:50:19.103Z,21.09
2023-01-19T08:51:23.222Z,21.14
2023-01-19T08:52:27.354Z,21.15
2023-01-19T08:53:31.601Z,21.12
2023-01-19T08:54:35.752Z,21.14
2023-01-19T08:55:42.546Z,21.13
2023-01-19T08:56:46.662Z,21.12
2023-01-19T08:57:50.776Z,21.12
2023-01-19T08:59:07.977Z,21.12
2023-01-19T09:00:16.559Z,21.09
2023-01-19T09:01:20.871Z,21.11
2023-01-19T09:02:25.383Z,21.11
2023-01-19T09:03:29.820Z,21.07
2023-01-19T09:04:34.124Z,21.09
2023-01-19T09:05:38.266Z,21.09
2023-01-19T09:06:42.505Z,21.09
2023-01-19T09:07:46.773Z,21.09
2023-01-19T09:08:50.889Z,21.09
2023-01-19T09:09:54.993Z,21.07
2023-01-19T09:10:59.223Z,21.07
2023-01-19T09:12:03.915Z,21.08
2023-01-19T09:13:08.193Z,21.08
2023-01-19T09:14:12.437Z,21.07
2023-01-19T09:15:16.573Z,21.07
2023-01-19T09:16:20.737Z,21.07
2023-01-19T09:17:25.075Z,21.04
2023-01-19T09:18:29.179Z,21.03
2023-01-19T09:19:34.280Z,21.04
2023-01-19T09:20:39.120Z,21.05
2023-01-19T09:21:43.294Z,21.06
2023-01-19T09:22:47.418Z,21.05
2023-01-19T09:23:51.523Z,21.04
2023-01-19T09:24:55.676Z,21.01
2023-01-19T09:25:59.879Z,21.02
2023-01-19T09:27:04.006Z,21.02
2023-01-19T09:28:08.135Z,21.02
2023-01-19T09:29:12.337Z,21.02
2023-01-19T09:30:16.473Z,20.98
2023-01-19T09:31:20.703Z,20.99
2023-01-19T09:32:25.151Z,20.96
2023-01-19T09:33:29.289Z,20.96
2023-01-19T09:34:33.394Z,20.96
2023-01-19T09:35:37.496Z,20.98
2023-01-19T09:36:41.701Z,20.98
2023-01-19T09:37:45.858Z,20.98
2023-01-19T09:38:49.976Z,20.98
2023-01-19T09:39:54.183Z,20.98
2023-01-19T09:40:58.478Z,20.99
2023-01-19T09:42:02.647Z,21.01
2023-01-19T09:43:06.800Z,21.03
2023-01-19T09:44:10.927Z,21.04
2023-01-19T09:45:15.072Z,21.06
2023-01-19T09:46:19.395Z,21.07
2023-01-19T09:47:23.655Z,21.12
2023-01-19T09:48:27.782Z,21.13
2023-01-19T09:49:31.907Z,21.14
2023-01-19T09:50:36.031Z,21.18
2023-01-19T09:51:40.133Z,21.2
2023-01-19T09:52:44.278Z,21.22
2023-01-19T09:53:48.388Z,21.22
2023-01-19T09:54:52.516Z,21.23
2023-01-19T09:55:56.669Z,21.24
2023-01-19T09:57:00.843Z,21.27
2023-01-19T09:58:04.939Z,21.28
2023-01-19T09:59:09.057Z,21.32
2023-01-19T10:00:13.162Z,21.35
2023-01-19T10:01:17.360Z,21.38
2023-01-19T10:02:21.812Z,21.41
2023-01-19T10:03:25.982Z,21.44
2023-01-19T10:04:30.286Z,21.47
2023-01-19T10:05:34.416Z,21.48
2023-01-19T10:06:38.527Z,21.48
2023-01-19T10:07:42.663Z,21.49
2023-01-19T10:08:46.799Z,21.53
2023-01-19T10:09:50.923Z,21.56
2023-01-19T10:10:55.116Z,21.54
2023-01-19T10:11:59.321Z,21.56
2023-01-19T10:13:03.752Z,21.55
2023-01-19T10:14:09.238Z,21.6
2023-01-19T10:15:14.439Z,21.55
2023-01-19T10:16:18.675Z,21.57
2023-01-19T10:17:22.927Z,21.55
2023-01-19T10:18:27.042Z,21.56
2023-01-19T10:19:31.133Z,21.56
2023-01-19T10:20:35.245Z,21.51
2023-01-19T10:21:39.382Z,21.49
2023-01-19T10:22:43.562Z,21.49
2023-01-19T10:23:47.763Z,21.5
2023-01-19T10:24:51.893Z,21.5
2023-01-19T10:25:56.138Z,21.48
2023-01-19T10:27:00.541Z,21.49
2023-01-19T10:28:04.745Z,21.51
2023-01-19T10:29:10.915Z,21.52
2023-01-19T10:30:15.799Z,21.5
2023-01-19T10:31:20.127Z,21.53
2023-01-19T10:32:24.730Z,21.57
2023-01-19T10:33:28.858Z,21.62
2023-01-19T10:34:33.005Z,21.63
2023-01-19T10:35:37.185Z,21.64
2023-01-19T10:36:41.590Z,21.68
2023-01-19T10:37:45.703Z,21.73
2023-01-19T10:38:49.905Z,21.76
2023-01-19T10:39:54.196Z,21.73
2023-01-19T10:40:58.424Z,21.76
2023-01-19T10:42:02.619Z,21.74
2023-01-19T10:43:06.953Z,21.76
2023-01-19T10:44:11.151Z,21.77
2023-01-19T10:45:15.379Z,21.7
2023-01-19T10:46:19.634Z,21.73
2023-01-19T10:47:24.115Z,21.71
2023-01-19T10:48:28.306Z,21.69
2023-01-19T10:49:32.425Z,21.67
2023-01-19T10:50:36.562Z,21.66
2023-01-19T10:51:40.769Z,21.63
2023-01-19T10:52:44.956Z,21.63
2023-01-19T10:53:49.057Z,21.62
2023-01-19T10:54:53.234Z,21.62
2023-01-19T10:55:57.467Z,21.63
2023-01-19T10:57:04.267Z,21.62
2023-01-19T10:58:08.679Z,21.65
2023-01-19T10:59:12.999Z,21.67
2023-01-19T11:00:17.230Z,21.68
2023-01-19T11:01:21.632Z,21.68
2023-01-19T11:02:26.661Z,21.74
2023-01-19T11:03:31.617Z,21.76
2023-01-19T11:04:35.857Z,21.77
2023-01-19T11:05:40.108Z,21.77
2023-01-19T11:06:44.209Z,21.76
2023-01-19T11:07:48.354Z,21.79
2023-01-19T11:08:52.482Z,21.77
2023-01-19T11:09:56.787Z,21.75
2023-01-19T11:11:00.932Z,21.76
2023-01-19T11:12:05.107Z,21.71
2023-01-19T11:13:09.237Z,21.74
2023-01-19T11:14:13.355Z,21.7
2023-01-19T11:15:17.465Z,21.72
2023-01-19T11:16:21.615Z,21.73
2023-01-19T11:17:25.923Z,21.73
2023-01-19T11:18:30.038Z,21.74
2023-01-19T11:19:34.180Z,21.74
2023-01-19T11:20:38.281Z,21.73
2023-01-19T11:21:42.474Z,21.73
2023-01-19T11:22:48.604Z,21.75
2023-01-19T11:23:52.962Z,21.78
2023-01-19T11:24:57.069Z,21.8
2023-01-19T11:26:01.207Z,21.8
2023-01-19T11:27:05.346Z,21.85
2023-01-19T11:28:09.459Z,21.88
2023-01-19T11:29:13.882Z,21.9
2023-01-19T11:30:17.975Z,21.91
2023-01-19T11:31:22.164Z,21.93
2023-01-19T11:32:26.661Z,21.95
2023-01-19T11:33:30.791Z,22.01
2023-01-19T11:34:34.904Z,22.02
2023-01-19T11:35:40.755Z,22.01
2023-01-19T11:36:44.891Z,22.03
2023-01-19T11:37:48.992Z,22.01
2023-01-19T11:38:53.334Z,22.01
2023-01-19T11:39:57.454Z,22.02
2023-01-19T11:41:01.582Z,22
2023-01-19T11:42:05.698Z,21.98
2023-01-19T11:43:09.824Z,21.95
2023-01-19T11:44:13.947Z,21.94
2023-01-19T11:45:18.161Z,21.91
2023-01-19T11:46:22.728Z,21.89
2023-01-19T11:47:26.884Z,21.87
2023-01-19T11:48:31.053Z,21.88
2023-01-19T11:49:35.196Z,21.88
2023-01-19T11:50:39.381Z,21.89
2023-01-19T11:51:43.494Z,21.88
2023-01-19T11:52:47.595Z,21.9
2023-01-19T11:53:51.860Z,21.94
2023-01-19T11:54:56.106Z,21.92
2023-01-19T11:56:00.231Z,21.96
2023-01-19T11:57:04.340Z,21.95
2023-01-19T11:58:08.430Z,22.02
2023-01-19T11:59:12.566Z,22.06
2023-01-19T12:00:16.679Z,22.08
2023-01-19T12:01:20.851Z,22.1
2023-01-19T12:02:25.203Z,22.09
2023-01-19T12:03:29.570Z,22.11
2023-01-19T12:04:34.010Z,22.09
2023-01-19T12:05:38.131Z,22.08
2023-01-19T12:06:42.268Z,22.06
2023-01-19T12:07:46.385Z,22.08
2023-01-19T12:08:50.500Z,22.05
2023-01-19T12:09:54.642Z,22.04
2023-01-19T12:10:58.827Z,22.04
2023-01-19T12:12:03.420Z,22.02
2023-01-19T12:13:07.600Z,22.01
2023-01-19T12:14:11.826Z,21.99
2023-01-19T12:15:15.934Z,21.96
2023-01-19T12:16:20.085Z,21.97
2023-01-19T12:17:24.354Z,21.95
2023-01-19T12:18:28.515Z,21.95
2023-01-19T12:19:32.688Z,21.97
2023-01-19T12:20:36.802Z,21.93
2023-01-19T12:21:40.920Z,21.91
2023-01-19T12:22:45.064Z,21.95
2023-01-19T12:23:49.154Z,21.97
2023-01-19T12:24:53.284Z,22.04
2023-01-19T12:25:58.148Z,22.07
2023-01-19T12:27:02.369Z,22.08
2023-01-19T12:28:06.579Z,22.11
2023-01-19T12:29:10.828Z,22.12
2023-01-19T12:30:17.829Z,22.12
2023-01-19T12:31:22.524Z,22.12
2023-01-19T12:32:28.272Z,22.16
2023-01-19T12:33:35.615Z,22.12
2023-01-19T12:34:39.869Z,22.13
2023-01-19T12:35:44.059Z,22.13
2023-01-19T12:36:48.224Z,22.12
2023-01-19T12:37:52.355Z,22.1
2023-01-19T12:38:56.641Z,22.08
2023-01-19T12:40:00.814Z,22.06
2023-01-19T12:41:04.912Z,22.05
2023-01-19T12:42:09.003Z,22.03
2023-01-19T12:43:13.530Z,22.03
2023-01-19T12:44:17.636Z,22.02
2023-01-19T12:45:21.791Z,22.02
2023-01-19T12:46:25.965Z,22
2023-01-19T12:47:30.223Z,22.01
2023-01-19T12:48:34.344Z,22.03
2023-01-19T12:49:38.539Z,22.08
2023-01-19T12:50:42.729Z,22.1
2023-01-19T12:51:46.881Z,22.08
2023-01-19T12:52:50.977Z,22.12
2023-01-19T12:53:55.174Z,22.16
2023-01-19T12:54:59.297Z,22.15
2023-01-19T12:56:03.488Z,22.16
2023-01-19T12:57:07.720Z,22.13
2023-01-19T12:58:11.827Z,22.15
2023-01-19T12:59:15.933Z,22.14
2023-01-19T13:00:20.947Z,22.14
2023-01-19T13:01:25.299Z,22.15
2023-01-19T13:02:29.738Z,22.11
2023-01-19T13:03:33.949Z,22.14
2023-01-19T13:04:38.086Z,22.14
2023-01-19T13:05:42.330Z,22.14
2023-01-19T13:06:46.523Z,22.14
2023-01-19T13:07:50.645Z,22.13
2023-01-19T13:08:54.803Z,22.13
2023-01-19T13:09:58.917Z,22.14
2023-01-19T13:11:03.010Z,22.13
2023-01-19T13:12:07.162Z,22.13
2023-01-19T13:13:11.284Z,22.08
2023-01-19T13:14:15.392Z,22.06
2023-01-19T13:15:19.509Z,22.07
2023-01-19T13:16:23.645Z,22.05
2023-01-19T13:17:27.813Z,22.04
2023-01-19T13:18:32.011Z,22.03
2023-01-19T13:19:36.181Z,21.99
2023-01-19T13:20:41.438Z,21.99
2023-01-19T13:21:45.551Z,21.97
2023-01-19T13:22:49.950Z,21.95
2023-01-19T13:23:54.064Z,21.97
2023-01-19T13:24:58.352Z,21.97
2023-01-19T13:26:03.089Z,21.95
2023-01-19T13:27:07.217Z,21.94
2023-01-19T13:28:11.332Z,21.93
2023-01-19T13:29:15.473Z,21.91
2023-01-19T13:30:19.630Z,21.9
2023-01-19T13:31:23.907Z,21.88
2023-01-19T13:32:28.239Z,21.87
2023-01-19T13:33:32.416Z,21.86
2023-01-19T13:34:36.557Z,21.84
2023-01-19T13:35:40.756Z,21.83
2023-01-19T13:36:45.231Z,21.81
2023-01-19T13:37:50.108Z,21.63
2023-01-19T13:38:54.224Z,21.81
2023-01-19T13:39:58.500Z,21.77
2023-01-19T13:41:03.736Z,21.76
2023-01-19T13:42:07.895Z,21.55
2023-01-19T13:43:12.004Z,21.72
2023-01-19T13:44:16.176Z,21.45
2023-01-19T13:45:20.355Z,21.75
2023-01-19T13:46:24.501Z,21.72
2023-01-19T13:47:28.885Z,21.73
2023-01-19T13:48:33.005Z,21.72
2023-01-19T13:49:37.174Z,21.71
2023-01-19T13:50:41.347Z,21.7
2023-01-19T13:51:45.485Z,21.7